sensor_id;sensor_type;location;lat;lon;timestamp;P1;durP1;ratioP1;P2;durP2;ratioP2
36799;SDS011;22752;51.960;5.886;2022-12-08T00:00:49;15.23;;;11.40;;
36799;SDS011;22752;51.960;5.886;2022-12-08T00:03:15;14.20;;;11.40;;
36799;SDS011;22752;51.960;5.886;2022-12-08T00:05:44;18.73;;;11.73;;
36799;SDS011;22752;51.960;5.886;2022-12-08T00:08:29;16.60;;;12.73;;
36799;SDS011;22752;51.960;5.886;2022-12-08T00:11:13;18.77;;;12.67;;
36799;SDS011;22752;51.960;5.886;2022-12-08T00:13:39;17.73;;;12.73;;
36799;SDS011;22752;51.960;5.886;2022-12-08T00:16:05;14.27;;;11.77;;
36799;SDS011;22752;51.960;5.886;2022-12-08T00:18:31;16.53;;;11.30;;
36799;SDS011;22752;51.960;5.886;2022-12-08T00:20:57;16.53;;;11.80;;
36799;SDS011;22752;51.960;5.886;2022-12-08T00:23:24;17.73;;;12.77;;
36799;SDS011;22752;51.960;5.886;2022-12-08T00:25:50;15.33;;;10.87;;
36799;SDS011;22752;51.960;5.886;2022-12-08T00:28:16;13.63;;;10.70;;
36799;SDS011;22752;51.960;5.886;2022-12-08T00:30:42;15.77;;;10.50;;
36799;SDS011;22752;51.960;5.886;2022-12-08T00:33:08;13.60;;;10.47;;
36799;SDS011;22752;51.960;5.886;2022-12-08T00:35:34;12.53;;;9.50;;
36799;SDS011;22752;51.960;5.886;2022-12-08T00:38:00;17.27;;;9.97;;
36799;SDS011;22752;51.960;5.886;2022-12-08T00:40:26;14.33;;;9.50;;
36799;SDS011;22752;51.960;5.886;2022-12-08T00:42:51;17.03;;;10.37;;
36799;SDS011;22752;51.960;5.886;2022-12-08T00:45:17;13.13;;;9.83;;
36799;SDS011;22752;51.960;5.886;2022-12-08T00:47:43;11.20;;;9.63;;
36799;SDS011;22752;51.960;5.886;2022-12-08T00:50:08;15.80;;;9.83;;
36799;SDS011;22752;51.960;5.886;2022-12-08T00:52:34;14.87;;;10.10;;
36799;SDS011;22752;51.960;5.886;2022-12-08T00:55:00;10.50;;;8.37;;
36799;SDS011;22752;51.960;5.886;2022-12-08T00:57:26;11.67;;;8.67;;
36799;SDS011;22752;51.960;5.886;2022-12-08T00:59:51;12.30;;;8.87;;
36799;SDS011;22752;51.960;5.886;2022-12-08T01:02:17;13.37;;;9.00;;
36799;SDS011;22752;51.960;5.886;2022-12-08T01:04:42;14.67;;;9.80;;
36799;SDS011;22752;51.960;5.886;2022-12-08T01:07:08;12.13;;;8.77;;
36799;SDS011;22752;51.960;5.886;2022-12-08T01:09:34;11.27;;;8.50;;
36799;SDS011;22752;51.960;5.886;2022-12-08T01:12:00;11.97;;;8.33;;
36799;SDS011;22752;51.960;5.886;2022-12-08T01:14:25;14.00;;;9.03;;
36799;SDS011;22752;51.960;5.886;2022-12-08T01:16:51;11.47;;;8.97;;
36799;SDS011;22752;51.960;5.886;2022-12-08T01:19:17;13.63;;;9.00;;
36799;SDS011;22752;51.960;5.886;2022-12-08T01:21:43;14.63;;;9.27;;
36799;SDS011;22752;51.960;5.886;2022-12-08T01:24:13;13.80;;;9.13;;
36799;SDS011;22752;51.960;5.886;2022-12-08T01:26:41;13.88;;;9.85;;
36799;SDS011;22752;51.960;5.886;2022-12-08T01:29:07;11.43;;;9.60;;
36799;SDS011;22752;51.960;5.886;2022-12-08T01:31:33;12.37;;;9.60;;
36799;SDS011;22752;51.960;5.886;2022-12-08T01:33:59;13.90;;;9.63;;
36799;SDS011;22752;51.960;5.886;2022-12-08T01:36:26;12.43;;;9.77;;
36799;SDS011;22752;51.960;5.886;2022-12-08T01:38:53;14.77;;;10.43;;
36799;SDS011;22752;51.960;5.886;2022-12-08T01:41:22;16.03;;;10.97;;
36799;SDS011;22752;51.960;5.886;2022-12-08T01:46:35;16.10;;;12.87;;
36799;SDS011;22752;51.960;5.886;2022-12-08T01:51:47;18.70;;;13.80;;
36799;SDS011;22752;51.960;5.886;2022-12-08T01:54:20;20.60;;;16.17;;
36799;SDS011;22752;51.960;5.886;2022-12-08T01:56:51;23.90;;;16.73;;
36799;SDS011;22752;51.960;5.886;2022-12-08T01:59:18;23.10;;;15.70;;
36799;SDS011;22752;51.960;5.886;2022-12-08T02:01:44;21.57;;;16.80;;
36799;SDS011;22752;51.960;5.886;2022-12-08T02:04:10;23.17;;;18.90;;
36799;SDS011;22752;51.960;5.886;2022-12-08T02:06:37;24.50;;;18.40;;
36799;SDS011;22752;51.960;5.886;2022-12-08T02:09:05;21.60;;;17.67;;
36799;SDS011;22752;51.960;5.886;2022-12-08T02:11:32;21.67;;;17.73;;
36799;SDS011;22752;51.960;5.886;2022-12-08T02:13:57;25.63;;;18.40;;
36799;SDS011;22752;51.960;5.886;2022-12-08T02:21:53;21.53;;;16.93;;
36799;SDS011;22752;51.960;5.886;2022-12-08T02:24:29;24.73;;;18.65;;
36799;SDS011;22752;51.960;5.886;2022-12-08T02:33:04;26.60;;;18.97;;
36799;SDS011;22752;51.960;5.886;2022-12-08T02:35:35;23.67;;;19.13;;
36799;SDS011;22752;51.960;5.886;2022-12-08T02:43:28;20.70;;;16.70;;
36799;SDS011;22752;51.960;5.886;2022-12-08T02:46:00;22.17;;;17.47;;
36799;SDS011;22752;51.960;5.886;2022-12-08T02:48:32;19.65;;;15.65;;
36799;SDS011;22752;51.960;5.886;2022-12-08T02:50:58;19.83;;;15.47;;
36799;SDS011;22752;51.960;5.886;2022-12-08T02:53:25;15.97;;;13.27;;
36799;SDS011;22752;51.960;5.886;2022-12-08T03:01:31;14.93;;;11.73;;
36799;SDS011;22752;51.960;5.886;2022-12-08T03:04:04;15.47;;;11.53;;
36799;SDS011;22752;51.960;5.886;2022-12-08T03:06:44;19.53;;;12.47;;
36799;SDS011;22752;51.960;5.886;2022-12-08T03:12:25;15.43;;;12.10;;
36799;SDS011;22752;51.960;5.886;2022-12-08T03:14:53;18.03;;;12.27;;
36799;SDS011;22752;51.960;5.886;2022-12-08T03:17:22;15.43;;;12.63;;
36799;SDS011;22752;51.960;5.886;2022-12-08T03:19:52;17.03;;;12.47;;
36799;SDS011;22752;51.960;5.886;2022-12-08T03:22:21;19.30;;;14.13;;
36799;SDS011;22752;51.960;5.886;2022-12-08T03:24:49;16.77;;;12.63;;
36799;SDS011;22752;51.960;5.886;2022-12-08T03:27:22;17.27;;;13.43;;
36799;SDS011;22752;51.960;5.886;2022-12-08T03:29:52;18.53;;;13.93;;
36799;SDS011;22752;51.960;5.886;2022-12-08T03:34:52;18.47;;;12.67;;
36799;SDS011;22752;51.960;5.886;2022-12-08T03:37:20;17.93;;;12.83;;
36799;SDS011;22752;51.960;5.886;2022-12-08T03:39:46;16.73;;;13.23;;
36799;SDS011;22752;51.960;5.886;2022-12-08T03:42:11;15.73;;;13.23;;
36799;SDS011;22752;51.960;5.886;2022-12-08T03:44:37;14.73;;;12.40;;
36799;SDS011;22752;51.960;5.886;2022-12-08T03:47:03;16.00;;;12.70;;
36799;SDS011;22752;51.960;5.886;2022-12-08T03:49:28;18.67;;;14.73;;
36799;SDS011;22752;51.960;5.886;2022-12-08T03:51:54;18.27;;;13.17;;
36799;SDS011;22752;51.960;5.886;2022-12-08T03:54:20;14.87;;;11.57;;
36799;SDS011;22752;51.960;5.886;2022-12-08T03:56:45;14.20;;;10.33;;
36799;SDS011;22752;51.960;5.886;2022-12-08T03:59:11;15.33;;;10.80;;
36799;SDS011;22752;51.960;5.886;2022-12-08T04:01:37;16.80;;;11.27;;
36799;SDS011;22752;51.960;5.886;2022-12-08T04:04:02;10.33;;;8.67;;
36799;SDS011;22752;51.960;5.886;2022-12-08T04:06:28;14.13;;;9.03;;
36799;SDS011;22752;51.960;5.886;2022-12-08T04:08:54;11.97;;;8.37;;
36799;SDS011;22752;51.960;5.886;2022-12-08T04:11:19;12.83;;;7.73;;
36799;SDS011;22752;51.960;5.886;2022-12-08T04:13:45;8.97;;;6.17;;
36799;SDS011;22752;51.960;5.886;2022-12-08T04:16:29;7.00;;;6.30;;
36799;SDS011;22752;51.960;5.886;2022-12-08T04:18:55;7.23;;;5.70;;
36799;SDS011;22752;51.960;5.886;2022-12-08T04:21:20;9.90;;;6.40;;
36799;SDS011;22752;51.960;5.886;2022-12-08T04:23:46;7.90;;;5.47;;
36799;SDS011;22752;51.960;5.886;2022-12-08T04:26:12;7.23;;;5.87;;
36799;SDS011;22752;51.960;5.886;2022-12-08T04:28:38;7.10;;;5.80;;
36799;SDS011;22752;51.960;5.886;2022-12-08T04:31:04;7.40;;;5.83;;
36799;SDS011;22752;51.960;5.886;2022-12-08T04:33:30;7.43;;;5.67;;
36799;SDS011;22752;51.960;5.886;2022-12-08T04:35:56;7.00;;;5.50;;
36799;SDS011;22752;51.960;5.886;2022-12-08T04:38:22;8.37;;;6.43;;
36799;SDS011;22752;51.960;5.886;2022-12-08T04:40:47;8.13;;;5.40;;
36799;SDS011;22752;51.960;5.886;2022-12-08T04:43:13;9.07;;;5.43;;
36799;SDS011;22752;51.960;5.886;2022-12-08T04:45:39;6.63;;;5.73;;
36799;SDS011;22752;51.960;5.886;2022-12-08T04:48:06;7.20;;;5.83;;
36799;SDS011;22752;51.960;5.886;2022-12-08T04:50:32;6.23;;;5.63;;
36799;SDS011;22752;51.960;5.886;2022-12-08T04:52:58;8.57;;;6.03;;
36799;SDS011;22752;51.960;5.886;2022-12-08T04:55:24;8.27;;;6.37;;
36799;SDS011;22752;51.960;5.886;2022-12-08T04:57:49;6.27;;;5.63;;
36799;SDS011;22752;51.960;5.886;2022-12-08T05:00:15;6.40;;;5.73;;
36799;SDS011;22752;51.960;5.886;2022-12-08T05:02:41;9.07;;;7.40;;
36799;SDS011;22752;51.960;5.886;2022-12-08T05:05:07;8.47;;;7.23;;
36799;SDS011;22752;51.960;5.886;2022-12-08T05:07:33;7.47;;;6.53;;
36799;SDS011;22752;51.960;5.886;2022-12-08T05:09:59;7.13;;;6.43;;
36799;SDS011;22752;51.960;5.886;2022-12-08T05:12:25;9.13;;;7.57;;
36799;SDS011;22752;51.960;5.886;2022-12-08T05:14:51;9.77;;;7.93;;
36799;SDS011;22752;51.960;5.886;2022-12-08T05:17:16;8.10;;;7.40;;
36799;SDS011;22752;51.960;5.886;2022-12-08T05:19:42;13.13;;;7.47;;
36799;SDS011;22752;51.960;5.886;2022-12-08T05:22:08;9.67;;;7.40;;
36799;SDS011;22752;51.960;5.886;2022-12-08T05:24:34;9.80;;;7.50;;
36799;SDS011;22752;51.960;5.886;2022-12-08T05:26:59;10.03;;;7.10;;
36799;SDS011;22752;51.960;5.886;2022-12-08T05:29:25;8.07;;;7.23;;
36799;SDS011;22752;51.960;5.886;2022-12-08T05:31:51;7.70;;;7.00;;
36799;SDS011;22752;51.960;5.886;2022-12-08T05:34:16;9.17;;;7.43;;
36799;SDS011;22752;51.960;5.886;2022-12-08T05:36:42;9.00;;;7.00;;
36799;SDS011;22752;51.960;5.886;2022-12-08T05:39:11;7.10;;;6.40;;
36799;SDS011;22752;51.960;5.886;2022-12-08T05:41:37;8.77;;;7.20;;
36799;SDS011;22752;51.960;5.886;2022-12-08T05:44:03;8.37;;;6.70;;
36799;SDS011;22752;51.960;5.886;2022-12-08T05:46:29;8.77;;;6.63;;
36799;SDS011;22752;51.960;5.886;2022-12-08T05:48:54;7.43;;;6.40;;
36799;SDS011;22752;51.960;5.886;2022-12-08T05:51:21;7.50;;;5.63;;
36799;SDS011;22752;51.960;5.886;2022-12-08T05:53:48;6.80;;;4.97;;
36799;SDS011;22752;51.960;5.886;2022-12-08T05:56:15;8.20;;;4.77;;
36799;SDS011;22752;51.960;5.886;2022-12-08T05:58:41;8.70;;;3.90;;
36799;SDS011;22752;51.960;5.886;2022-12-08T06:01:06;5.90;;;3.60;;
36799;SDS011;22752;51.960;5.886;2022-12-08T06:03:41;2.83;;;2.17;;
36799;SDS011;22752;51.960;5.886;2022-12-08T06:06:07;3.53;;;2.00;;
36799;SDS011;22752;51.960;5.886;2022-12-08T06:08:33;4.07;;;1.43;;
36799;SDS011;22752;51.960;5.886;2022-12-08T06:10:58;2.53;;;1.13;;
36799;SDS011;22752;51.960;5.886;2022-12-08T06:13:24;2.97;;;0.90;;
36799;SDS011;22752;51.960;5.886;2022-12-08T06:15:49;1.83;;;1.00;;
36799;SDS011;22752;51.960;5.886;2022-12-08T06:18:15;3.47;;;1.10;;
36799;SDS011;22752;51.960;5.886;2022-12-08T06:20:41;1.30;;;0.87;;
36799;SDS011;22752;51.960;5.886;2022-12-08T06:23:06;1.23;;;1.03;;
36799;SDS011;22752;51.960;5.886;2022-12-08T06:25:32;2.50;;;1.00;;
36799;SDS011;22752;51.960;5.886;2022-12-08T06:27:57;3.30;;;1.20;;
36799;SDS011;22752;51.960;5.886;2022-12-08T06:30:23;2.93;;;0.90;;
36799;SDS011;22752;51.960;5.886;2022-12-08T06:32:48;2.80;;;1.10;;
36799;SDS011;22752;51.960;5.886;2022-12-08T06:35:14;2.60;;;1.20;;
36799;SDS011;22752;51.960;5.886;2022-12-08T06:37:40;2.10;;;1.57;;
36799;SDS011;22752;51.960;5.886;2022-12-08T06:40:05;3.53;;;1.50;;
36799;SDS011;22752;51.960;5.886;2022-12-08T06:42:32;3.13;;;1.97;;
36799;SDS011;22752;51.960;5.886;2022-12-08T06:45:11;3.73;;;2.00;;
36799;SDS011;22752;51.960;5.886;2022-12-08T06:47:38;3.10;;;1.97;;
36799;SDS011;22752;51.960;5.886;2022-12-08T06:50:04;3.03;;;1.93;;
36799;SDS011;22752;51.960;5.886;2022-12-08T06:52:31;3.47;;;2.17;;
36799;SDS011;22752;51.960;5.886;2022-12-08T06:54:57;4.37;;;2.00;;
36799;SDS011;22752;51.960;5.886;2022-12-08T06:57:22;3.33;;;2.10;;
36799;SDS011;22752;51.960;5.886;2022-12-08T06:59:48;3.97;;;1.90;;
36799;SDS011;22752;51.960;5.886;2022-12-08T07:02:14;3.00;;;1.90;;
36799;SDS011;22752;51.960;5.886;2022-12-08T07:04:41;2.50;;;1.60;;
36799;SDS011;22752;51.960;5.886;2022-12-08T07:07:06;3.77;;;2.07;;
36799;SDS011;22752;51.960;5.886;2022-12-08T07:09:32;2.87;;;1.97;;
36799;SDS011;22752;51.960;5.886;2022-12-08T07:11:58;3.40;;;2.20;;
36799;SDS011;22752;51.960;5.886;2022-12-08T07:14:23;2.90;;;2.10;;
36799;SDS011;22752;51.960;5.886;2022-12-08T07:16:49;4.20;;;1.93;;
36799;SDS011;22752;51.960;5.886;2022-12-08T07:19:16;2.10;;;1.90;;
36799;SDS011;22752;51.960;5.886;2022-12-08T07:21:41;2.60;;;2.40;;
36799;SDS011;22752;51.960;5.886;2022-12-08T07:24:07;3.90;;;2.60;;
36799;SDS011;22752;51.960;5.886;2022-12-08T07:26:33;6.27;;;2.40;;
36799;SDS011;22752;51.960;5.886;2022-12-08T07:28:59;3.57;;;2.30;;
36799;SDS011;22752;51.960;5.886;2022-12-08T07:31:25;3.13;;;2.70;;
36799;SDS011;22752;51.960;5.886;2022-12-08T07:33:52;4.67;;;3.00;;
36799;SDS011;22752;51.960;5.886;2022-12-08T07:36:19;2.93;;;2.47;;
36799;SDS011;22752;51.960;5.886;2022-12-08T07:38:44;2.73;;;2.50;;
36799;SDS011;22752;51.960;5.886;2022-12-08T07:41:14;2.67;;;2.30;;
36799;SDS011;22752;51.960;5.886;2022-12-08T07:43:41;3.10;;;2.33;;
36799;SDS011;22752;51.960;5.886;2022-12-08T07:46:10;3.07;;;2.47;;
36799;SDS011;22752;51.960;5.886;2022-12-08T07:51:06;4.43;;;3.20;;
36799;SDS011;22752;51.960;5.886;2022-12-08T07:53:32;8.70;;;2.77;;
36799;SDS011;22752;51.960;5.886;2022-12-08T07:55:58;3.43;;;2.60;;
36799;SDS011;22752;51.960;5.886;2022-12-08T07:58:24;3.70;;;2.70;;
36799;SDS011;22752;51.960;5.886;2022-12-08T08:00:49;2.83;;;2.20;;
36799;SDS011;22752;51.960;5.886;2022-12-08T08:03:16;3.70;;;2.20;;
36799;SDS011;22752;51.960;5.886;2022-12-08T08:05:41;4.57;;;2.00;;
36799;SDS011;22752;51.960;5.886;2022-12-08T08:08:08;1.93;;;1.70;;
36799;SDS011;22752;51.960;5.886;2022-12-08T08:10:34;3.33;;;1.60;;
36799;SDS011;22752;51.960;5.886;2022-12-08T08:13:01;2.77;;;1.60;;
36799;SDS011;22752;51.960;5.886;2022-12-08T08:15:27;2.17;;;1.50;;
36799;SDS011;22752;51.960;5.886;2022-12-08T08:17:52;3.87;;;1.30;;
36799;SDS011;22752;51.960;5.886;2022-12-08T08:20:18;2.83;;;1.37;;
36799;SDS011;22752;51.960;5.886;2022-12-08T08:22:45;2.33;;;1.43;;
36799;SDS011;22752;51.960;5.886;2022-12-08T08:25:12;2.73;;;1.40;;
36799;SDS011;22752;51.960;5.886;2022-12-08T08:27:38;3.33;;;1.63;;
36799;SDS011;22752;51.960;5.886;2022-12-08T08:30:05;3.37;;;1.53;;
36799;SDS011;22752;51.960;5.886;2022-12-08T08:32:32;1.83;;;1.20;;
36799;SDS011;22752;51.960;5.886;2022-12-08T08:34:58;2.97;;;1.60;;
36799;SDS011;22752;51.960;5.886;2022-12-08T08:37:24;3.00;;;1.40;;
36799;SDS011;22752;51.960;5.886;2022-12-08T08:39:51;3.00;;;1.50;;
36799;SDS011;22752;51.960;5.886;2022-12-08T08:42:17;2.37;;;1.30;;
36799;SDS011;22752;51.960;5.886;2022-12-08T08:44:42;2.80;;;1.40;;
36799;SDS011;22752;51.960;5.886;2022-12-08T08:47:08;1.97;;;1.67;;
36799;SDS011;22752;51.960;5.886;2022-12-08T08:49:34;2.57;;;1.60;;
36799;SDS011;22752;51.960;5.886;2022-12-08T08:51:59;1.40;;;1.10;;
36799;SDS011;22752;51.960;5.886;2022-12-08T08:54:27;2.17;;;1.30;;
36799;SDS011;22752;51.960;5.886;2022-12-08T08:56:53;2.37;;;1.60;;
36799;SDS011;22752;51.960;5.886;2022-12-08T08:59:18;2.10;;;1.40;;
36799;SDS011;22752;51.960;5.886;2022-12-08T09:01:44;2.73;;;1.70;;
36799;SDS011;22752;51.960;5.886;2022-12-08T09:04:10;3.23;;;1.50;;
36799;SDS011;22752;51.960;5.886;2022-12-08T09:06:35;2.17;;;1.67;;
36799;SDS011;22752;51.960;5.886;2022-12-08T09:09:02;2.73;;;1.57;;
36799;SDS011;22752;51.960;5.886;2022-12-08T09:11:28;2.93;;;1.27;;
36799;SDS011;22752;51.960;5.886;2022-12-08T09:13:53;1.50;;;1.40;;
36799;SDS011;22752;51.960;5.886;2022-12-08T09:16:19;2.80;;;1.73;;
36799;SDS011;22752;51.960;5.886;2022-12-08T09:18:45;2.30;;;2.00;;
36799;SDS011;22752;51.960;5.886;2022-12-08T09:21:13;2.50;;;2.30;;
36799;SDS011;22752;51.960;5.886;2022-12-08T09:23:44;2.60;;;2.00;;
36799;SDS011;22752;51.960;5.886;2022-12-08T09:26:10;3.73;;;2.33;;
36799;SDS011;22752;51.960;5.886;2022-12-08T09:28:35;2.83;;;2.53;;
36799;SDS011;22752;51.960;5.886;2022-12-08T09:31:01;4.67;;;3.30;;
36799;SDS011;22752;51.960;5.886;2022-12-08T09:33:28;4.67;;;3.30;;
36799;SDS011;22752;51.960;5.886;2022-12-08T09:35:54;3.87;;;3.00;;
36799;SDS011;22752;51.960;5.886;2022-12-08T09:38:19;5.07;;;3.10;;
36799;SDS011;22752;51.960;5.886;2022-12-08T09:40:49;4.30;;;3.47;;
36799;SDS011;22752;51.960;5.886;2022-12-08T09:46:00;3.97;;;3.23;;
36799;SDS011;22752;51.960;5.886;2022-12-08T09:48:32;4.57;;;3.10;;
36799;SDS011;22752;51.960;5.886;2022-12-08T09:51:01;3.38;;;3.08;;
36799;SDS011;22752;51.960;5.886;2022-12-08T09:53:31;4.73;;;3.70;;
36799;SDS011;22752;51.960;5.886;2022-12-08T10:01:45;4.37;;;2.90;;
36799;SDS011;22752;51.960;5.886;2022-12-08T10:17:59;3.30;;;3.07;;
36799;SDS011;22752;51.960;5.886;2022-12-08T10:20:33;3.80;;;3.20;;
36799;SDS011;22752;51.960;5.886;2022-12-08T10:26:02;3.17;;;2.87;;
36799;SDS011;22752;51.960;5.886;2022-12-08T10:28:35;3.23;;;2.40;;
36799;SDS011;22752;51.960;5.886;2022-12-08T10:31:00;2.27;;;2.00;;
36799;SDS011;22752;51.960;5.886;2022-12-08T10:33:26;1.70;;;1.60;;
36799;SDS011;22752;51.960;5.886;2022-12-08T10:35:54;3.20;;;1.50;;
36799;SDS011;22752;51.960;5.886;2022-12-08T10:40:58;2.43;;;1.30;;
36799;SDS011;22752;51.960;5.886;2022-12-08T10:43:30;1.83;;;1.20;;
36799;SDS011;22752;51.960;5.886;2022-12-08T10:46:07;2.10;;;1.10;;
36799;SDS011;22752;51.960;5.886;2022-12-08T10:48:48;1.63;;;1.10;;
36799;SDS011;22752;51.960;5.886;2022-12-08T10:53:57;6.67;;;2.43;;
36799;SDS011;22752;51.960;5.886;2022-12-08T10:56:24;4.53;;;2.50;;
36799;SDS011;22752;51.960;5.886;2022-12-08T10:59:05;2.17;;;1.97;;
36799;SDS011;22752;51.960;5.886;2022-12-08T11:01:35;2.40;;;2.20;;
36799;SDS011;22752;51.960;5.886;2022-12-08T11:04:03;3.47;;;2.37;;
36799;SDS011;22752;51.960;5.886;2022-12-08T11:09:52;3.30;;;2.37;;
36799;SDS011;22752;51.960;5.886;2022-12-08T11:12:06;3.53;;;3.13;;
36799;SDS011;22752;51.960;5.886;2022-12-08T11:17:12;4.23;;;3.20;;
36799;SDS011;22752;51.960;5.886;2022-12-08T11:22:36;3.73;;;3.07;;
36799;SDS011;22752;51.960;5.886;2022-12-08T11:27:37;3.10;;;2.70;;
36799;SDS011;22752;51.960;5.886;2022-12-08T11:30:15;4.17;;;3.33;;
36799;SDS011;22752;51.960;5.886;2022-12-08T11:32:52;3.13;;;2.77;;
36799;SDS011;22752;51.960;5.886;2022-12-08T11:35:43;3.70;;;3.25;;
36799;SDS011;22752;51.960;5.886;2022-12-08T11:38:16;3.77;;;3.00;;
36799;SDS011;22752;51.960;5.886;2022-12-08T11:40:46;4.77;;;3.00;;
36799;SDS011;22752;51.960;5.886;2022-12-08T11:43:26;4.00;;;3.47;;
36799;SDS011;22752;51.960;5.886;2022-12-08T11:45:58;5.23;;;3.67;;
36799;SDS011;22752;51.960;5.886;2022-12-08T11:48:35;4.47;;;3.72;;
36799;SDS011;22752;51.960;5.886;2022-12-08T11:51:03;4.40;;;3.90;;
36799;SDS011;22752;51.960;5.886;2022-12-08T11:56:33;13.57;;;8.00;;
36799;SDS011;22752;51.960;5.886;2022-12-08T12:01:50;8.13;;;4.07;;
36799;SDS011;22752;51.960;5.886;2022-12-08T12:04:32;4.20;;;3.40;;
36799;SDS011;22752;51.960;5.886;2022-12-08T12:17:55;7.07;;;3.67;;
36799;SDS011;22752;51.960;5.886;2022-12-08T12:25:59;3.23;;;2.80;;
36799;SDS011;22752;51.960;5.886;2022-12-08T12:28:28;2.70;;;2.50;;
36799;SDS011;22752;51.960;5.886;2022-12-08T12:31:05;4.00;;;2.90;;
36799;SDS011;22752;51.960;5.886;2022-12-08T12:33:34;5.10;;;2.93;;
36799;SDS011;22752;51.960;5.886;2022-12-08T12:36:01;4.40;;;2.57;;
36799;SDS011;22752;51.960;5.886;2022-12-08T12:38:34;3.17;;;2.53;;
36799;SDS011;22752;51.960;5.886;2022-12-08T12:41:25;3.37;;;2.60;;
36799;SDS011;22752;51.960;5.886;2022-12-08T12:44:05;3.73;;;2.90;;
36799;SDS011;22752;51.960;5.886;2022-12-08T12:46:51;2.22;;;1.50;;
36799;SDS011;22752;51.960;5.886;2022-12-08T12:52:04;1.70;;;1.10;;
36799;SDS011;22752;51.960;5.886;2022-12-08T12:57:24;2.27;;;1.20;;
36799;SDS011;22752;51.960;5.886;2022-12-08T13:07:22;2.20;;;1.10;;
36799;SDS011;22752;51.960;5.886;2022-12-08T13:10:10;1.63;;;0.77;;
36799;SDS011;22752;51.960;5.886;2022-12-08T13:12:39;3.03;;;0.73;;
36799;SDS011;22752;51.960;5.886;2022-12-08T13:15:06;1.93;;;0.40;;
36799;SDS011;22752;51.960;5.886;2022-12-08T13:17:43;1.63;;;0.67;;
36799;SDS011;22752;51.960;5.886;2022-12-08T13:20:18;1.00;;;0.47;;
36799;SDS011;22752;51.960;5.886;2022-12-08T13:28:18;4.20;;;1.60;;
36799;SDS011;22752;51.960;5.886;2022-12-08T13:33:28;4.88;;;2.70;;
36799;SDS011;22752;51.960;5.886;2022-12-08T13:36:02;2.90;;;2.20;;
36799;SDS011;22752;51.960;5.886;2022-12-08T13:38:38;10.23;;;5.37;;
36799;SDS011;22752;51.960;5.886;2022-12-08T13:41:10;9.80;;;4.00;;
36799;SDS011;22752;51.960;5.886;2022-12-08T13:43:46;4.57;;;2.37;;
36799;SDS011;22752;51.960;5.886;2022-12-08T13:46:18;3.30;;;1.50;;
36799;SDS011;22752;51.960;5.886;2022-12-08T13:48:58;3.10;;;1.30;;
36799;SDS011;22752;51.960;5.886;2022-12-08T13:51:27;5.60;;;2.10;;
36799;SDS011;22752;51.960;5.886;2022-12-08T13:54:05;3.90;;;2.33;;
36799;SDS011;22752;51.960;5.886;2022-12-08T13:56:34;3.53;;;2.40;;
36799;SDS011;22752;51.960;5.886;2022-12-08T13:59:06;4.87;;;2.53;;
36799;SDS011;22752;51.960;5.886;2022-12-08T14:01:33;3.77;;;1.90;;
36799;SDS011;22752;51.960;5.886;2022-12-08T14:04:11;3.70;;;2.00;;
36799;SDS011;22752;51.960;5.886;2022-12-08T14:06:41;3.17;;;1.80;;
36799;SDS011;22752;51.960;5.886;2022-12-08T14:09:11;2.57;;;2.03;;
36799;SDS011;22752;51.960;5.886;2022-12-08T14:11:44;3.97;;;1.77;;
36799;SDS011;22752;51.960;5.886;2022-12-08T14:14:15;3.30;;;1.70;;
36799;SDS011;22752;51.960;5.886;2022-12-08T14:16:54;2.40;;;1.70;;
36799;SDS011;22752;51.960;5.886;2022-12-08T14:19:23;2.47;;;1.77;;
36799;SDS011;22752;51.960;5.886;2022-12-08T14:21:53;2.53;;;1.80;;
36799;SDS011;22752;51.960;5.886;2022-12-08T14:24:26;4.73;;;2.00;;
36799;SDS011;22752;51.960;5.886;2022-12-08T14:26:54;3.90;;;2.50;;
36799;SDS011;22752;51.960;5.886;2022-12-08T14:29:41;3.50;;;2.40;;
36799;SDS011;22752;51.960;5.886;2022-12-08T14:32:19;3.72;;;2.15;;
36799;SDS011;22752;51.960;5.886;2022-12-08T14:34:45;3.00;;;2.40;;
36799;SDS011;22752;51.960;5.886;2022-12-08T14:37:16;3.10;;;2.00;;
36799;SDS011;22752;51.960;5.886;2022-12-08T14:39:42;2.97;;;1.90;;
36799;SDS011;22752;51.960;5.886;2022-12-08T14:42:11;2.73;;;1.80;;
36799;SDS011;22752;51.960;5.886;2022-12-08T14:44:47;2.50;;;1.70;;
36799;SDS011;22752;51.960;5.886;2022-12-08T14:47:21;2.83;;;1.90;;
36799;SDS011;22752;51.960;5.886;2022-12-08T14:49:46;2.97;;;2.10;;
36799;SDS011;22752;51.960;5.886;2022-12-08T14:52:12;3.90;;;2.30;;
36799;SDS011;22752;51.960;5.886;2022-12-08T14:54:38;3.53;;;2.57;;
36799;SDS011;22752;51.960;5.886;2022-12-08T14:57:08;2.40;;;2.20;;
36799;SDS011;22752;51.960;5.886;2022-12-08T14:59:37;2.73;;;2.30;;
36799;SDS011;22752;51.960;5.886;2022-12-08T15:04:36;2.60;;;2.40;;
36799;SDS011;22752;51.960;5.886;2022-12-08T15:07:06;3.27;;;2.33;;
36799;SDS011;22752;51.960;5.886;2022-12-08T15:09:38;4.47;;;3.22;;
36799;SDS011;22752;51.960;5.886;2022-12-08T15:12:14;3.80;;;2.70;;
36799;SDS011;22752;51.960;5.886;2022-12-08T15:14:53;5.87;;;2.77;;
36799;SDS011;22752;51.960;5.886;2022-12-08T15:17:32;4.13;;;3.07;;
36799;SDS011;22752;51.960;5.886;2022-12-08T15:22:57;3.73;;;3.40;;
36799;SDS011;22752;51.960;5.886;2022-12-08T15:25:23;5.80;;;4.23;;
36799;SDS011;22752;51.960;5.886;2022-12-08T15:27:49;3.83;;;3.27;;
36799;SDS011;22752;51.960;5.886;2022-12-08T15:30:17;4.67;;;4.00;;
36799;SDS011;22752;51.960;5.886;2022-12-08T15:32:44;5.40;;;4.40;;
36799;SDS011;22752;51.960;5.886;2022-12-08T15:35:13;5.13;;;3.60;;
36799;SDS011;22752;51.960;5.886;2022-12-08T15:37:40;5.80;;;3.40;;
36799;SDS011;22752;51.960;5.886;2022-12-08T15:40:06;4.13;;;3.70;;
36799;SDS011;22752;51.960;5.886;2022-12-08T15:42:39;4.67;;;4.13;;
36799;SDS011;22752;51.960;5.886;2022-12-08T15:45:05;5.20;;;4.17;;
36799;SDS011;22752;51.960;5.886;2022-12-08T15:47:31;7.13;;;4.70;;
36799;SDS011;22752;51.960;5.886;2022-12-08T15:49:57;5.30;;;4.67;;
36799;SDS011;22752;51.960;5.886;2022-12-08T15:52:23;6.47;;;4.70;;
36799;SDS011;22752;51.960;5.886;2022-12-08T15:54:49;4.87;;;4.20;;
36799;SDS011;22752;51.960;5.886;2022-12-08T15:57:24;6.57;;;5.03;;
36799;SDS011;22752;51.960;5.886;2022-12-08T15:59:52;5.83;;;5.23;;
36799;SDS011;22752;51.960;5.886;2022-12-08T16:02:18;7.23;;;5.17;;
36799;SDS011;22752;51.960;5.886;2022-12-08T16:04:43;7.23;;;5.23;;
36799;SDS011;22752;51.960;5.886;2022-12-08T16:07:23;5.93;;;4.90;;
36799;SDS011;22752;51.960;5.886;2022-12-08T16:09:52;8.27;;;5.97;;
36799;SDS011;22752;51.960;5.886;2022-12-08T16:12:19;8.17;;;5.97;;
36799;SDS011;22752;51.960;5.886;2022-12-08T16:15:05;7.47;;;6.50;;
36799;SDS011;22752;51.960;5.886;2022-12-08T16:17:31;7.60;;;6.60;;
36799;SDS011;22752;51.960;5.886;2022-12-08T16:19:58;9.17;;;7.57;;
36799;SDS011;22752;51.960;5.886;2022-12-08T16:22:26;9.63;;;7.90;;
36799;SDS011;22752;51.960;5.886;2022-12-08T16:24:53;9.83;;;8.67;;
36799;SDS011;22752;51.960;5.886;2022-12-08T16:27:20;9.30;;;8.07;;
36799;SDS011;22752;51.960;5.886;2022-12-08T16:29:57;10.07;;;8.40;;
36799;SDS011;22752;51.960;5.886;2022-12-08T16:32:24;8.10;;;7.30;;
36799;SDS011;22752;51.960;5.886;2022-12-08T16:34:51;11.00;;;7.93;;
36799;SDS011;22752;51.960;5.886;2022-12-08T16:37:18;8.03;;;7.23;;
36799;SDS011;22752;51.960;5.886;2022-12-08T16:39:45;9.67;;;8.43;;
36799;SDS011;22752;51.960;5.886;2022-12-08T16:42:14;11.07;;;9.43;;
36799;SDS011;22752;51.960;5.886;2022-12-08T16:45:42;11.00;;;9.83;;
36799;SDS011;22752;51.960;5.886;2022-12-08T16:47:52;11.93;;;10.30;;
36799;SDS011;22752;51.960;5.886;2022-12-08T16:50:29;13.23;;;10.33;;
36799;SDS011;22752;51.960;5.886;2022-12-08T16:52:57;16.33;;;10.57;;
36799;SDS011;22752;51.960;5.886;2022-12-08T16:55:27;14.93;;;11.50;;